sensor_id;sensor_type;location;lat;lon;timestamp;temperature;humidity
13464;DHT22;6804;48.774;9.174;2023-03-08T00:01:27;6.90;95.80
13464;DHT22;6804;48.774;9.174;2023-03-08T00:03:56;7.00;95.90
13464;DHT22;6804;48.774;9.174;2023-03-08T00:06:25;7.00;95.70
13464;DHT22;6804;48.774;9.174;2023-03-08T00:08:57;6.90;95.90
13464;DHT22;6804;48.774;9.174;2023-03-08T00:11:28;6.90;96.00
13464;DHT22;6804;48.774;9.174;2023-03-08T00:13:56;6.90;96.00
13464;DHT22;6804;48.774;9.174;2023-03-08T00:16:28;6.90;96.20
13464;DHT22;6804;48.774;9.174;2023-03-08T00:18:56;6.90;96.00
13464;DHT22;6804;48.774;9.174;2023-03-08T00:21:23;6.90;96.00
13464;DHT22;6804;48.774;9.174;2023-03-08T00:23:51;7.00;96.20
13464;DHT22;6804;48.774;9.174;2023-03-08T00:26:21;7.00;96.40
13464;DHT22;6804;48.774;9.174;2023-03-08T00:28:52;7.00;96.30
13464;DHT22;6804;48.774;9.174;2023-03-08T00:31:20;7.00;96.20
13464;DHT22;6804;48.774;9.174;2023-03-08T00:33:51;7.00;96.20
13464;DHT22;6804;48.774;9.174;2023-03-08T00:36:20;7.00;96.30
13464;DHT22;6804;48.774;9.174;2023-03-08T00:38:48;7.00;96.40
13464;DHT22;6804;48.774;9.174;2023-03-08T00:41:16;7.00;96.40
13464;DHT22;6804;48.774;9.174;2023-03-08T00:43:46;7.00;96.40
13464;DHT22;6804;48.774;9.174;2023-03-08T00:46:13;6.90;96.80
13464;DHT22;6804;48.774;9.174;2023-03-08T00:48:48;6.90;96.50
13464;DHT22;6804;48.774;9.174;2023-03-08T00:51:19;6.90;96.40
13464;DHT22;6804;48.774;9.174;2023-03-08T00:53:48;6.80;96.50
13464;DHT22;6804;48.774;9.174;2023-03-08T00:56:16;6.90;96.70
13464;DHT22;6804;48.774;9.174;2023-03-08T00:58:46;6.90;96.80
13464;DHT22;6804;48.774;9.174;2023-03-08T01:01:15;6.90;96.70
13464;DHT22;6804;48.774;9.174;2023-03-08T01:03:42;6.80;96.50
13464;DHT22;6804;48.774;9.174;2023-03-08T01:06:13;6.80;96.80
13464;DHT22;6804;48.774;9.174;2023-03-08T01:08:48;6.70;96.80
13464;DHT22;6804;48.774;9.174;2023-03-08T01:11:17;6.70;97.00
13464;DHT22;6804;48.774;9.174;2023-03-08T01:13:49;6.70;96.90
13464;DHT22;6804;48.774;9.174;2023-03-08T01:16:21;6.70;97.10
13464;DHT22;6804;48.774;9.174;2023-03-08T01:18:48;6.70;97.00
13464;DHT22;6804;48.774;9.174;2023-03-08T01:21:20;6.60;97.10
13464;DHT22;6804;48.774;9.174;2023-03-08T01:23:48;6.60;97.30
13464;DHT22;6804;48.774;9.174;2023-03-08T01:26:18;6.60;97.30
13464;DHT22;6804;48.774;9.174;2023-03-08T01:28:46;6.60;97.30
13464;DHT22;6804;48.774;9.174;2023-03-08T01:31:15;6.60;97.30
13464;DHT22;6804;48.774;9.174;2023-03-08T01:33:43;6.60;97.50
13464;DHT22;6804;48.774;9.174;2023-03-08T01:36:12;6.50;97.80
13464;DHT22;6804;48.774;9.174;2023-03-08T01:38:45;6.40;97.80
13464;DHT22;6804;48.774;9.174;2023-03-08T01:41:17;6.50;97.90
13464;DHT22;6804;48.774;9.174;2023-03-08T01:43:45;6.50;97.80
13464;DHT22;6804;48.774;9.174;2023-03-08T01:46:26;6.50;97.90
13464;DHT22;6804;48.774;9.174;2023-03-08T01:49:02;6.40;97.90
13464;DHT22;6804;48.774;9.174;2023-03-08T01:51:35;6.40;98.00
13464;DHT22;6804;48.774;9.174;2023-03-08T01:54:10;6.30;97.80
13464;DHT22;6804;48.774;9.174;2023-03-08T01:56:40;6.30;98.00
13464;DHT22;6804;48.774;9.174;2023-03-08T01:59:08;6.30;98.20
13464;DHT22;6804;48.774;9.174;2023-03-08T02:01:36;6.30;98.10
13464;DHT22;6804;48.774;9.174;2023-03-08T02:04:04;6.30;98.20
13464;DHT22;6804;48.774;9.174;2023-03-08T02:06:34;6.20;98.20
13464;DHT22;6804;48.774;9.174;2023-03-08T02:09:02;6.20;98.30
13464;DHT22;6804;48.774;9.174;2023-03-08T02:11:32;6.20;98.50
13464;DHT22;6804;48.774;9.174;2023-03-08T02:14:00;6.10;98.30
13464;DHT22;6804;48.774;9.174;2023-03-08T02:16:27;6.10;98.40
13464;DHT22;6804;48.774;9.174;2023-03-08T02:19:01;6.20;98.60
13464;DHT22;6804;48.774;9.174;2023-03-08T02:21:30;6.20;98.40
13464;DHT22;6804;48.774;9.174;2023-03-08T02:24:05;6.20;98.50
13464;DHT22;6804;48.774;9.174;2023-03-08T02:26:34;6.20;98.50
13464;DHT22;6804;48.774;9.174;2023-03-08T02:29:06;6.20;98.40
13464;DHT22;6804;48.774;9.174;2023-03-08T02:31:33;6.30;98.50
13464;DHT22;6804;48.774;9.174;2023-03-08T02:34:00;6.30;98.50
13464;DHT22;6804;48.774;9.174;2023-03-08T02:36:28;6.30;98.30
13464;DHT22;6804;48.774;9.174;2023-03-08T02:39:00;6.20;98.50
13464;DHT22;6804;48.774;9.174;2023-03-08T02:41:29;6.20;98.70
13464;DHT22;6804;48.774;9.174;2023-03-08T02:43:56;6.20;98.50
13464;DHT22;6804;48.774;9.174;2023-03-08T02:46:24;6.20;98.50
13464;DHT22;6804;48.774;9.174;2023-03-08T02:48:51;6.20;98.60
13464;DHT22;6804;48.774;9.174;2023-03-08T02:51:18;6.20;98.50
13464;DHT22;6804;48.774;9.174;2023-03-08T02:53:46;6.20;98.60
13464;DHT22;6804;48.774;9.174;2023-03-08T02:56:16;6.20;98.50
13464;DHT22;6804;48.774;9.174;2023-03-08T02:58:47;6.20;98.50
13464;DHT22;6804;48.774;9.174;2023-03-08T03:01:14;6.20;98.60
13464;DHT22;6804;48.774;9.174;2023-03-08T03:03:42;6.10;98.50
13464;DHT22;6804;48.774;9.174;2023-03-08T03:06:13;6.10;98.70
13464;DHT22;6804;48.774;9.174;2023-03-08T03:08:41;6.10;98.50
13464;DHT22;6804;48.774;9.174;2023-03-08T03:11:12;6.20;98.70
13464;DHT22;6804;48.774;9.174;2023-03-08T03:13:40;6.20;98.60
13464;DHT22;6804;48.774;9.174;2023-03-08T03:16:10;6.20;98.50
13464;DHT22;6804;48.774;9.174;2023-03-08T03:18:40;6.20;98.60
13464;DHT22;6804;48.774;9.174;2023-03-08T03:21:13;6.20;98.50
13464;DHT22;6804;48.774;9.174;2023-03-08T03:23:40;6.20;98.40
13464;DHT22;6804;48.774;9.174;2023-03-08T03:26:12;6.20;98.60
13464;DHT22;6804;48.774;9.174;2023-03-08T03:28:39;6.20;98.40
13464;DHT22;6804;48.774;9.174;2023-03-08T03:31:10;6.20;98.60
13464;DHT22;6804;48.774;9.174;2023-03-08T03:33:38;6.30;98.60
13464;DHT22;6804;48.774;9.174;2023-03-08T03:36:06;6.30;98.40
13464;DHT22;6804;48.774;9.174;2023-03-08T03:38:35;6.30;98.40
13464;DHT22;6804;48.774;9.174;2023-03-08T03:41:07;6.30;98.40
13464;DHT22;6804;48.774;9.174;2023-03-08T03:43:35;6.30;98.20
13464;DHT22;6804;48.774;9.174;2023-03-08T03:46:04;6.30;98.40
13464;DHT22;6804;48.774;9.174;2023-03-08T03:48:33;6.30;98.40
13464;DHT22;6804;48.774;9.174;2023-03-08T03:51:02;6.30;98.40
13464;DHT22;6804;48.774;9.174;2023-03-08T03:53:31;6.30;98.40
13464;DHT22;6804;48.774;9.174;2023-03-08T03:56:02;6.30;98.40
13464;DHT22;6804;48.774;9.174;2023-03-08T03:58:29;6.30;98.30
13464;DHT22;6804;48.774;9.174;2023-03-08T04:00:57;6.30;98.50
13464;DHT22;6804;48.774;9.174;2023-03-08T04:03:25;6.30;98.40
13464;DHT22;6804;48.774;9.174;2023-03-08T04:06:05;6.40;98.40
13464;DHT22;6804;48.774;9.174;2023-03-08T04:08:32;6.40;98.30
13464;DHT22;6804;48.774;9.174;2023-03-08T04:11:00;6.40;98.20
13464;DHT22;6804;48.774;9.174;2023-03-08T04:13:32;6.40;98.20
13464;DHT22;6804;48.774;9.174;2023-03-08T04:16:25;6.40;98.20
13464;DHT22;6804;48.774;9.174;2023-03-08T04:18:53;6.30;98.20
13464;DHT22;6804;48.774;9.174;2023-03-08T04:21:23;6.30;98.20
13464;DHT22;6804;48.774;9.174;2023-03-08T04:23:50;6.30;98.30
13464;DHT22;6804;48.774;9.174;2023-03-08T04:26:18;6.30;98.30
13464;DHT22;6804;48.774;9.174;2023-03-08T04:28:49;6.30;98.30
13464;DHT22;6804;48.774;9.174;2023-03-08T04:31:19;6.30;98.30
13464;DHT22;6804;48.774;9.174;2023-03-08T04:33:48;6.40;98.40
13464;DHT22;6804;48.774;9.174;2023-03-08T04:36:16;6.30;98.30
13464;DHT22;6804;48.774;9.174;2023-03-08T04:38:45;6.30;98.20
13464;DHT22;6804;48.774;9.174;2023-03-08T04:41:13;6.30;98.30
13464;DHT22;6804;48.774;9.174;2023-03-08T04:43:45;6.30;98.40
13464;DHT22;6804;48.774;9.174;2023-03-08T04:46:13;6.30;98.40
13464;DHT22;6804;48.774;9.174;2023-03-08T04:48:42;6.30;98.40
13464;DHT22;6804;48.774;9.174;2023-03-08T04:51:14;6.30;98.40
13464;DHT22;6804;48.774;9.174;2023-03-08T04:53:46;6.40;98.50
13464;DHT22;6804;48.774;9.174;2023-03-08T04:56:14;6.40;98.60
13464;DHT22;6804;48.774;9.174;2023-03-08T04:58:42;6.40;98.40
13464;DHT22;6804;48.774;9.174;2023-03-08T05:01:11;6.40;98.60
13464;DHT22;6804;48.774;9.174;2023-03-08T05:03:39;6.40;98.40
13464;DHT22;6804;48.774;9.174;2023-03-08T05:06:09;6.40;98.60
13464;DHT22;6804;48.774;9.174;2023-03-08T05:08:36;6.40;98.40
13464;DHT22;6804;48.774;9.174;2023-03-08T05:11:05;6.40;98.60
13464;DHT22;6804;48.774;9.174;2023-03-08T05:13:36;6.40;98.60
13464;DHT22;6804;48.774;9.174;2023-03-08T05:16:05;6.40;98.60
13464;DHT22;6804;48.774;9.174;2023-03-08T05:18:35;6.40;98.60
13464;DHT22;6804;48.774;9.174;2023-03-08T05:21:07;6.40;98.70
13464;DHT22;6804;48.774;9.174;2023-03-08T05:23:35;6.40;98.80
13464;DHT22;6804;48.774;9.174;2023-03-08T05:26:10;6.40;98.70
13464;DHT22;6804;48.774;9.174;2023-03-08T05:28:37;6.40;99.00
13464;DHT22;6804;48.774;9.174;2023-03-08T05:31:09;6.40;98.80
13464;DHT22;6804;48.774;9.174;2023-03-08T05:33:37;6.40;98.70
13464;DHT22;6804;48.774;9.174;2023-03-08T05:36:05;6.40;98.90
13464;DHT22;6804;48.774;9.174;2023-03-08T05:38:33;6.50;99.00
13464;DHT22;6804;48.774;9.174;2023-03-08T05:41:05;6.40;99.10
13464;DHT22;6804;48.774;9.174;2023-03-08T05:43:35;6.40;99.10
13464;DHT22;6804;48.774;9.174;2023-03-08T05:46:05;6.40;98.90
13464;DHT22;6804;48.774;9.174;2023-03-08T05:48:34;6.40;99.00
13464;DHT22;6804;48.774;9.174;2023-03-08T05:51:04;6.40;99.10
13464;DHT22;6804;48.774;9.174;2023-03-08T05:53:35;6.40;99.20
13464;DHT22;6804;48.774;9.174;2023-03-08T05:56:07;6.50;99.00
13464;DHT22;6804;48.774;9.174;2023-03-08T05:58:36;6.50;99.10
13464;DHT22;6804;48.774;9.174;2023-03-08T06:01:11;6.50;99.00
13464;DHT22;6804;48.774;9.174;2023-03-08T06:03:39;6.50;99.10
13464;DHT22;6804;48.774;9.174;2023-03-08T06:06:07;6.50;98.80
13464;DHT22;6804;48.774;9.174;2023-03-08T06:08:34;6.50;99.00
13464;DHT22;6804;48.774;9.174;2023-03-08T06:11:05;6.60;99.20
13464;DHT22;6804;48.774;9.174;2023-03-08T06:13:37;6.60;99.10
13464;DHT22;6804;48.774;9.174;2023-03-08T06:16:07;6.60;99.10
13464;DHT22;6804;48.774;9.174;2023-03-08T06:18:36;6.60;99.10
13464;DHT22;6804;48.774;9.174;2023-03-08T06:21:09;6.70;99.20
13464;DHT22;6804;48.774;9.174;2023-03-08T06:23:41;6.70;99.20
13464;DHT22;6804;48.774;9.174;2023-03-08T06:26:09;6.80;99.10
13464;DHT22;6804;48.774;9.174;2023-03-08T06:28:39;6.70;99.30
13464;DHT22;6804;48.774;9.174;2023-03-08T06:31:11;6.80;99.50
13464;DHT22;6804;48.774;9.174;2023-03-08T06:33:39;6.80;99.50
13464;DHT22;6804;48.774;9.174;2023-03-08T06:36:12;6.90;99.50
13464;DHT22;6804;48.774;9.174;2023-03-08T06:38:40;6.90;99.60
13464;DHT22;6804;48.774;9.174;2023-03-08T06:41:14;6.90;99.80
13464;DHT22;6804;48.774;9.174;2023-03-08T06:43:46;6.90;99.70
13464;DHT22;6804;48.774;9.174;2023-03-08T06:46:18;6.90;99.80
13464;DHT22;6804;48.774;9.174;2023-03-08T06:48:47;6.90;99.80
13464;DHT22;6804;48.774;9.174;2023-03-08T06:51:14;7.00;99.90
13464;DHT22;6804;48.774;9.174;2023-03-08T06:53:44;7.00;99.80
13464;DHT22;6804;48.774;9.174;2023-03-08T06:56:14;7.00;99.90
13464;DHT22;6804;48.774;9.174;2023-03-08T06:58:42;7.10;99.80
13464;DHT22;6804;48.774;9.174;2023-03-08T07:01:16;7.00;99.80
13464;DHT22;6804;48.774;9.174;2023-03-08T07:03:47;7.00;99.70
13464;DHT22;6804;48.774;9.174;2023-03-08T07:06:16;7.10;99.80
13464;DHT22;6804;48.774;9.174;2023-03-08T07:08:46;7.20;99.70
13464;DHT22;6804;48.774;9.174;2023-03-08T07:11:14;7.10;99.50
13464;DHT22;6804;48.774;9.174;2023-03-08T07:13:46;7.10;99.60
13464;DHT22;6804;48.774;9.174;2023-03-08T07:16:15;7.20;99.60
13464;DHT22;6804;48.774;9.174;2023-03-08T07:18:43;7.10;99.70
13464;DHT22;6804;48.774;9.174;2023-03-08T07:21:10;7.20;99.40
13464;DHT22;6804;48.774;9.174;2023-03-08T07:23:38;7.10;99.50
13464;DHT22;6804;48.774;9.174;2023-03-08T07:26:09;7.10;99.60
13464;DHT22;6804;48.774;9.174;2023-03-08T07:28:40;7.10;99.60
13464;DHT22;6804;48.774;9.174;2023-03-08T07:31:09;7.10;99.60
13464;DHT22;6804;48.774;9.174;2023-03-08T07:33:39;7.10;99.60
13464;DHT22;6804;48.774;9.174;2023-03-08T07:36:12;7.10;99.80
13464;DHT22;6804;48.774;9.174;2023-03-08T07:38:39;7.20;99.60
13464;DHT22;6804;48.774;9.174;2023-03-08T07:41:07;7.10;99.60
13464;DHT22;6804;48.774;9.174;2023-03-08T07:43:36;7.10;99.50
13464;DHT22;6804;48.774;9.174;2023-03-08T07:46:04;7.20;99.80
13464;DHT22;6804;48.774;9.174;2023-03-08T07:48:34;7.20;99.60
13464;DHT22;6804;48.774;9.174;2023-03-08T07:51:05;7.10;99.70
13464;DHT22;6804;48.774;9.174;2023-03-08T07:53:34;7.00;99.90
13464;DHT22;6804;48.774;9.174;2023-03-08T07:56:06;7.00;99.90
13464;DHT22;6804;48.774;9.174;2023-03-08T07:58:36;7.00;99.90
13464;DHT22;6804;48.774;9.174;2023-03-08T08:01:10;6.90;99.90
13464;DHT22;6804;48.774;9.174;2023-03-08T08:03:38;7.00;99.90
13464;DHT22;6804;48.774;9.174;2023-03-08T08:06:09;7.00;99.90
13464;DHT22;6804;48.774;9.174;2023-03-08T08:08:37;7.10;99.90
13464;DHT22;6804;48.774;9.174;2023-03-08T08:11:12;7.10;99.90
13464;DHT22;6804;48.774;9.174;2023-03-08T08:13:40;7.10;99.90
13464;DHT22;6804;48.774;9.174;2023-03-08T08:16:08;7.20;99.90
13464;DHT22;6804;48.774;9.174;2023-03-08T08:18:39;7.20;99.90
13464;DHT22;6804;48.774;9.174;2023-03-08T08:21:12;7.30;99.90
13464;DHT22;6804;48.774;9.174;2023-03-08T08:23:41;7.30;99.90
13464;DHT22;6804;48.774;9.174;2023-03-08T08:26:10;7.40;99.90
13464;DHT22;6804;48.774;9.174;2023-03-08T08:28:41;7.50;99.90
13464;DHT22;6804;48.774;9.174;2023-03-08T08:31:12;7.50;99.90
13464;DHT22;6804;48.774;9.174;2023-03-08T08:33:41;7.50;99.90
13464;DHT22;6804;48.774;9.174;2023-03-08T08:36:14;7.50;99.90
13464;DHT22;6804;48.774;9.174;2023-03-08T08:38:42;7.50;99.90
13464;DHT22;6804;48.774;9.174;2023-03-08T08:41:11;7.50;99.90
13464;DHT22;6804;48.774;9.174;2023-03-08T08:43:40;7.50;99.90
13464;DHT22;6804;48.774;9.174;2023-03-08T08:46:08;7.50;99.90
13464;DHT22;6804;48.774;9.174;2023-03-08T08:48:42;7.40;99.90
13464;DHT22;6804;48.774;9.174;2023-03-08T08:51:13;7.20;99.90
13464;DHT22;6804;48.774;9.174;2023-03-08T08:53:43;7.10;99.90
13464;DHT22;6804;48.774;9.174;2023-03-08T08:56:17;7.00;99.90
13464;DHT22;6804;48.774;9.174;2023-03-08T08:58:46;7.10;99.90
13464;DHT22;6804;48.774;9.174;2023-03-08T09:01:21;7.20;99.90
13464;DHT22;6804;48.774;9.174;2023-03-08T09:03:51;7.20;99.90
13464;DHT22;6804;48.774;9.174;2023-03-08T09:06:22;7.30;99.90
13464;DHT22;6804;48.774;9.174;2023-03-08T09:08:50;7.30;99.90
13464;DHT22;6804;48.774;9.174;2023-03-08T09:11:20;7.20;99.90
13464;DHT22;6804;48.774;9.174;2023-03-08T09:13:52;7.30;99.90
13464;DHT22;6804;48.774;9.174;2023-03-08T09:16:21;7.20;99.90
13464;DHT22;6804;48.774;9.174;2023-03-08T09:18:53;7.10;99.90
13464;DHT22;6804;48.774;9.174;2023-03-08T09:21:23;6.90;99.90
13464;DHT22;6804;48.774;9.174;2023-03-08T09:23:51;6.90;99.90
13464;DHT22;6804;48.774;9.174;2023-03-08T09:26:22;6.90;99.90
13464;DHT22;6804;48.774;9.174;2023-03-08T09:28:53;7.00;99.90
13464;DHT22;6804;48.774;9.174;2023-03-08T09:31:21;7.00;99.90
13464;DHT22;6804;48.774;9.174;2023-03-08T09:33:50;7.10;99.90
13464;DHT22;6804;48.774;9.174;2023-03-08T09:36:21;7.10;99.90
13464;DHT22;6804;48.774;9.174;2023-03-08T09:38:52;7.00;99.90
13464;DHT22;6804;48.774;9.174;2023-03-08T09:41:39;7.10;99.90
13464;DHT22;6804;48.774;9.174;2023-03-08T09:44:23;7.20;99.90
13464;DHT22;6804;48.774;9.174;2023-03-08T09:47:03;7.30;99.90
13464;DHT22;6804;48.774;9.174;2023-03-08T09:49:32;7.40;99.90
13464;DHT22;6804;48.774;9.174;2023-03-08T09:52:11;7.40;99.90
13464;DHT22;6804;48.774;9.174;2023-03-08T09:54:43;7.30;99.90
13464;DHT22;6804;48.774;9.174;2023-03-08T09:57:15;7.30;99.90
13464;DHT22;6804;48.774;9.174;2023-03-08T09:59:48;7.30;99.90
13464;DHT22;6804;48.774;9.174;2023-03-08T10:02:28;7.40;99.90
13464;DHT22;6804;48.774;9.174;2023-03-08T10:05:10;7.60;99.90
13464;DHT22;6804;48.774;9.174;2023-03-08T10:07:50;7.70;99.90
13464;DHT22;6804;48.774;9.174;2023-03-08T10:10:29;7.90;99.90
13464;DHT22;6804;48.774;9.174;2023-03-08T10:13:30;8.00;99.90
13464;DHT22;6804;48.774;9.174;2023-03-08T10:16:05;8.20;99.90
13464;DHT22;6804;48.774;9.174;2023-03-08T10:18:44;8.20;99.90
13464;DHT22;6804;48.774;9.174;2023-03-08T10:21:17;8.30;99.90
13464;DHT22;6804;48.774;9.174;2023-03-08T10:23:54;8.40;99.90
13464;DHT22;6804;48.774;9.174;2023-03-08T10:26:26;8.60;99.90
13464;DHT22;6804;48.774;9.174;2023-03-08T10:28:54;8.60;99.90
13464;DHT22;6804;48.774;9.174;2023-03-08T10:31:26;8.70;99.90
13464;DHT22;6804;48.774;9.174;2023-03-08T10:34:00;8.80;99.90
13464;DHT22;6804;48.774;9.174;2023-03-08T10:36:44;8.90;99.90
13464;DHT22;6804;48.774;9.174;2023-03-08T10:39:15;8.90;99.90
13464;DHT22;6804;48.774;9.174;2023-03-08T10:41:46;9.00;99.90
13464;DHT22;6804;48.774;9.174;2023-03-08T10:44:26;9.10;99.90
13464;DHT22;6804;48.774;9.174;2023-03-08T10:46:54;9.20;99.90
13464;DHT22;6804;48.774;9.174;2023-03-08T10:49:23;9.40;99.90
13464;DHT22;6804;48.774;9.174;2023-03-08T10:51:55;9.50;99.90
13464;DHT22;6804;48.774;9.174;2023-03-08T10:54:24;9.60;99.90
13464;DHT22;6804;48.774;9.174;2023-03-08T10:56:55;9.80;99.90
13464;DHT22;6804;48.774;9.174;2023-03-08T10:59:26;10.00;99.90
13464;DHT22;6804;48.774;9.174;2023-03-08T11:01:59;10.20;99.90
13464;DHT22;6804;48.774;9.174;2023-03-08T11:04:28;10.40;99.90
13464;DHT22;6804;48.774;9.174;2023-03-08T11:06:55;10.60;99.90
13464;DHT22;6804;48.774;9.174;2023-03-08T11:09:25;10.70;99.90
13464;DHT22;6804;48.774;9.174;2023-03-08T11:11:56;10.80;99.90
13464;DHT22;6804;48.774;9.174;2023-03-08T11:14:25;10.90;99.90
13464;DHT22;6804;48.774;9.174;2023-03-08T11:17:00;11.00;99.90
13464;DHT22;6804;48.774;9.174;2023-03-08T11:19:39;11.10;99.90
13464;DHT22;6804;48.774;9.174;2023-03-08T11:22:28;11.10;99.90
13464;DHT22;6804;48.774;9.174;2023-03-08T11:25:12;11.20;99.90
13464;DHT22;6804;48.774;9.174;2023-03-08T11:27:55;11.20;99.90
13464;DHT22;6804;48.774;9.174;2023-03-08T11:30:34;11.20;99.90
13464;DHT22;6804;48.774;9.174;2023-03-08T11:33:32;11.20;99.90
13464;DHT22;6804;48.774;9.174;2023-03-08T11:36:05;11.20;99.90
13464;DHT22;6804;48.774;9.174;2023-03-08T11:38:35;11.20;99.90
13464;DHT22;6804;48.774;9.174;2023-03-08T11:41:11;11.30;99.90
13464;DHT22;6804;48.774;9.174;2023-03-08T11:43:58;11.30;99.90
13464;DHT22;6804;48.774;9.174;2023-03-08T11:46:40;11.40;99.90
13464;DHT22;6804;48.774;9.174;2023-03-08T11:49:36;11.40;99.90
13464;DHT22;6804;48.774;9.174;2023-03-08T11:52:16;11.50;99.90
13464;DHT22;6804;48.774;9.174;2023-03-08T11:54:55;11.60;99.90
13464;DHT22;6804;48.774;9.174;2023-03-08T11:57:32;11.60;99.90
13464;DHT22;6804;48.774;9.174;2023-03-08T12:00:10;11.70;99.90
13464;DHT22;6804;48.774;9.174;2023-03-08T12:02:47;11.70;99.90
13464;DHT22;6804;48.774;9.174;2023-03-08T12:05:22;11.80;99.90
13464;DHT22;6804;48.774;9.174;2023-03-08T12:07:55;11.80;99.90
13464;DHT22;6804;48.774;9.174;2023-03-08T12:10:27;11.80;99.90
13464;DHT22;6804;48.774;9.174;2023-03-08T12:13:00;11.90;99.90
13464;DHT22;6804;48.774;9.174;2023-03-08T12:15:37;11.90;99.90
13464;DHT22;6804;48.774;9.174;2023-03-08T12:18:17;11.90;99.90
13464;DHT22;6804;48.774;9.174;2023-03-08T12:20:59;11.90;99.90
13464;DHT22;6804;48.774;9.174;2023-03-08T12:23:37;11.90;99.90
13464;DHT22;6804;48.774;9.174;2023-03-08T12:26:13;12.00;99.90
13464;DHT22;6804;48.774;9.174;2023-03-08T12:28:45;12.10;99.90
13464;DHT22;6804;48.774;9.174;2023-03-08T12:31:23;12.10;99.90
13464;DHT22;6804;48.774;9.174;2023-03-08T12:33:52;12.20;99.90
13464;DHT22;6804;48.774;9.174;2023-03-08T12:36:20;12.20;99.90
13464;DHT22;6804;48.774;9.174;2023-03-08T12:38:49;12.20;99.90
13464;DHT22;6804;48.774;9.174;2023-03-08T12:41:26;12.20;99.90
13464;DHT22;6804;48.774;9.174;2023-03-08T12:44:04;12.20;99.90
13464;DHT22;6804;48.774;9.174;2023-03-08T12:46:50;12.30;99.90
13464;DHT22;6804;48.774;9.174;2023-03-08T12:49:20;12.30;99.90
13464;DHT22;6804;48.774;9.174;2023-03-08T12:52:02;12.40;99.90
13464;DHT22;6804;48.774;9.174;2023-03-08T12:54:33;12.40;99.90
13464;DHT22;6804;48.774;9.174;2023-03-08T12:57:13;12.50;99.90
13464;DHT22;6804;48.774;9.174;2023-03-08T12:59:41;12.60;99.90
13464;DHT22;6804;48.774;9.174;2023-03-08T13:02:28;12.70;99.90
13464;DHT22;6804;48.774;9.174;2023-03-08T13:11:08;13.00;99.90
13464;DHT22;6804;48.774;9.174;2023-03-08T13:13:49;13.00;99.90
13464;DHT22;6804;48.774;9.174;2023-03-08T13:16:21;13.00;99.90
13464;DHT22;6804;48.774;9.174;2023-03-08T13:19:00;13.00;99.90
13464;DHT22;6804;48.774;9.174;2023-03-08T13:21:31;13.00;99.90
13464;DHT22;6804;48.774;9.174;2023-03-08T13:24:08;13.00;99.90
13464;DHT22;6804;48.774;9.174;2023-03-08T13:26:48;13.10;99.90
13464;DHT22;6804;48.774;9.174;2023-03-08T13:29:20;13.10;99.90
13464;DHT22;6804;48.774;9.174;2023-03-08T13:31:47;13.10;99.90
13464;DHT22;6804;48.774;9.174;2023-03-08T13:34:28;13.20;99.90
13464;DHT22;6804;48.774;9.174;2023-03-08T13:37:00;13.20;99.90
13464;DHT22;6804;48.774;9.174;2023-03-08T13:39:29;13.30;99.90
13464;DHT22;6804;48.774;9.174;2023-03-08T13:42:07;13.40;99.90
13464;DHT22;6804;48.774;9.174;2023-03-08T13:44:38;13.30;99.90
13464;DHT22;6804;48.774;9.174;2023-03-08T13:47:17;13.40;99.90
13464;DHT22;6804;48.774;9.174;2023-03-08T13:49:52;13.50;99.90
13464;DHT22;6804;48.774;9.174;2023-03-08T13:52:23;13.50;99.90
13464;DHT22;6804;48.774;9.174;2023-03-08T13:54:52;13.50;99.90
13464;DHT22;6804;48.774;9.174;2023-03-08T13:57:23;13.60;99.90
13464;DHT22;6804;48.774;9.174;2023-03-08T13:59:54;13.60;99.90
13464;DHT22;6804;48.774;9.174;2023-03-08T14:02:23;13.60;99.90
13464;DHT22;6804;48.774;9.174;2023-03-08T14:04:57;13.60;99.90
13464;DHT22;6804;48.774;9.174;2023-03-08T14:07:29;13.70;99.90
13464;DHT22;6804;48.774;9.174;2023-03-08T14:10:00;13.80;99.90
13464;DHT22;6804;48.774;9.174;2023-03-08T14:12:33;13.80;99.90
13464;DHT22;6804;48.774;9.174;2023-03-08T14:15:03;13.90;99.90
13464;DHT22;6804;48.774;9.174;2023-03-08T14:17:33;13.90;99.90
13464;DHT22;6804;48.774;9.174;2023-03-08T14:20:14;13.90;99.90
13464;DHT22;6804;48.774;9.174;2023-03-08T14:22:45;13.90;99.90
13464;DHT22;6804;48.774;9.174;2023-03-08T14:25:23;13.80;99.90
13464;DHT22;6804;48.774;9.174;2023-03-08T14:27:51;13.80;99.90
13464;DHT22;6804;48.774;9.174;2023-03-08T14:30:21;13.80;99.90
13464;DHT22;6804;48.774;9.174;2023-03-08T14:33:01;13.70;99.90
13464;DHT22;6804;48.774;9.174;2023-03-08T14:35:34;13.70;99.90
13464;DHT22;6804;48.774;9.174;2023-03-08T14:38:02;13.60;99.90
13464;DHT22;6804;48.774;9.174;2023-03-08T14:40:45;13.60;99.90
13464;DHT22;6804;48.774;9.174;2023-03-08T14:43:18;13.60;99.90
13464;DHT22;6804;48.774;9.174;2023-03-08T14:45:52;13.60;99.90
13464;DHT22;6804;48.774;9.174;2023-03-08T14:48:22;13.70;99.90
13464;DHT22;6804;48.774;9.174;2023-03-08T14:50:54;13.70;99.90
13464;DHT22;6804;48.774;9.174;2023-03-08T14:53:25;13.70;99.90
13464;DHT22;6804;48.774;9.174;2023-03-08T14:55:54;13.70;99.90
13464;DHT22;6804;48.774;9.174;2023-03-08T14:58:24;13.70;99.90
13464;DHT22;6804;48.774;9.174;2023-03-08T15:00:54;13.70;99.90
13464;DHT22;6804;48.774;9.174;2023-03-08T15:03:22;13.60;99.90
13464;DHT22;6804;48.774;9.174;2023-03-08T15:05:54;13.60;99.90
13464;DHT22;6804;48.774;9.174;2023-03-08T15:08:22;13.60;99.90
13464;DHT22;6804;48.774;9.174;2023-03-08T15:10:54;13.50;99.90
13464;DHT22;6804;48.774;9.174;2023-03-08T15:13:22;13.60;99.90
13464;DHT22;6804;48.774;9.174;2023-03-08T15:15:52;13.60;99.90
13464;DHT22;6804;48.774;9.174;2023-03-08T15:18:23;13.60;99.90
13464;DHT22;6804;48.774;9.174;2023-03-08T15:20:55;13.60;99.90
13464;DHT22;6804;48.774;9.174;2023-03-08T15:23:26;13.50;99.90
13464;DHT22;6804;48.774;9.174;2023-03-08T15:26:01;13.50;99.90
13464;DHT22;6804;48.774;9.174;2023-03-08T15:28:32;13.50;99.90
13464;DHT22;6804;48.774;9.174;2023-03-08T15:31:02;13.50;99.90
13464;DHT22;6804;48.774;9.174;2023-03-08T15:33:33;13.50;99.90
13464;DHT22;6804;48.774;9.174;2023-03-08T15:36:02;13.50;99.90
13464;DHT22;6804;48.774;9.174;2023-03-08T15:38:30;13.50;99.90
13464;DHT22;6804;48.774;9.174;2023-03-08T15:40:58;13.40;99.90
13464;DHT22;6804;48.774;9.174;2023-03-08T15:43:25;13.50;99.90
13464;DHT22;6804;48.774;9.174;2023-03-08T15:45:53;13.40;99.90
13464;DHT22;6804;48.774;9.174;2023-03-08T15:48:23;13.40;99.90
13464;DHT22;6804;48.774;9.174;2023-03-08T15:50:50;13.30;99.90
13464;DHT22;6804;48.774;9.174;2023-03-08T15:53:22;13.30;99.90
13464;DHT22;6804;48.774;9.174;2023-03-08T15:55:53;13.30;99.90
13464;DHT22;6804;48.774;9.174;2023-03-08T15:58:23;13.30;99.90
13464;DHT22;6804;48.774;9.174;2023-03-08T16:00:53;13.30;99.90
13464;DHT22;6804;48.774;9.174;2023-03-08T16:03:23;13.30;99.90
13464;DHT22;6804;48.774;9.174;2023-03-08T16:05:55;13.30;99.90
13464;DHT22;6804;48.774;9.174;2023-03-08T16:08:25;13.30;99.90
13464;DHT22;6804;48.774;9.174;2023-03-08T16:10:53;13.20;99.90
13464;DHT22;6804;48.774;9.174;2023-03-08T16:13:23;13.20;99.90
13464;DHT22;6804;48.774;9.174;2023-03-08T16:15:50;13.20;99.90
13464;DHT22;6804;48.774;9.174;2023-03-08T16:18:18;13.20;99.90
13464;DHT22;6804;48.774;9.174;2023-03-08T16:20:54;13.20;99.90
13464;DHT22;6804;48.774;9.174;2023-03-08T16:23:23;13.20;99.90
13464;DHT22;6804;48.774;9.174;2023-03-08T16:25:57;13.20;99.90
13464;DHT22;6804;48.774;9.174;2023-03-08T16:28:24;13.20;99.90
13464;DHT22;6804;48.774;9.174;2023-03-08T16:30:56;13.10;99.90